Wevertown, New York
Current Conditions -  °F | °C
As of 8:53 AM on Saturday 20 Dec 2014 (Local Time) from KGFL Reporting Station
Overcast Overcast  
Wind Chill: 22°   Ceiling: 1600
Heat Index: 22°   Visibility: 10mi
Dew Point: 16°   Wind: 3mph
Humidity: 78%   Direction: 50°NE
Pressure: 30.33"   Gusts: NA
Location:  43.63°N, 73.94°W
Report Text: KGFL 201353Z AUTO 05003KT 10SM OVC016 M06/M09 A3033 RMK AO2 SLP281 T10561089
Loading
Personal Weather Stations






























Interactive Weather Map New forecast layout! Learn more

10-Day Weather Forecast

Advertisements
Track Severe Weather on mobile